sensor_id;sensor_type;location;lat;lon;timestamp;temperature;humidity
37642;DHT22;23486;51.956;5.888;2024-01-30T00:00:34;6.50;99.90
37642;DHT22;23486;51.956;5.888;2024-01-30T00:03:00;6.40;99.90
37642;DHT22;23486;51.956;5.888;2024-01-30T00:05:26;6.40;99.90
37642;DHT22;23486;51.956;5.888;2024-01-30T00:07:51;6.40;99.90
37642;DHT22;23486;51.956;5.888;2024-01-30T00:10:17;6.40;99.90
37642;DHT22;23486;51.956;5.888;2024-01-30T00:12:42;6.30;99.90
37642;DHT22;23486;51.956;5.888;2024-01-30T00:15:11;6.30;99.90
37642;DHT22;23486;51.956;5.888;2024-01-30T00:17:37;6.30;99.90
37642;DHT22;23486;51.956;5.888;2024-01-30T00:20:03;6.20;99.90
37642;DHT22;23486;51.956;5.888;2024-01-30T00:22:32;6.30;99.90
37642;DHT22;23486;51.956;5.888;2024-01-30T00:24:58;6.20;99.90
37642;DHT22;23486;51.956;5.888;2024-01-30T00:27:24;6.20;99.90
37642;DHT22;23486;51.956;5.888;2024-01-30T00:29:49;6.20;99.90
37642;DHT22;23486;51.956;5.888;2024-01-30T00:32:15;6.20;99.90
37642;DHT22;23486;51.956;5.888;2024-01-30T00:34:41;6.20;99.90
37642;DHT22;23486;51.956;5.888;2024-01-30T00:37:07;6.10;99.90
37642;DHT22;23486;51.956;5.888;2024-01-30T00:39:32;6.10;99.90
37642;DHT22;23486;51.956;5.888;2024-01-30T00:41:58;6.10;99.90
37642;DHT22;23486;51.956;5.888;2024-01-30T00:44:24;6.10;99.90
37642;DHT22;23486;51.956;5.888;2024-01-30T00:46:49;6.10;99.90
37642;DHT22;23486;51.956;5.888;2024-01-30T00:49:15;6.00;99.90
37642;DHT22;23486;51.956;5.888;2024-01-30T00:51:40;6.00;99.90
37642;DHT22;23486;51.956;5.888;2024-01-30T00:54:06;6.10;99.90
37642;DHT22;23486;51.956;5.888;2024-01-30T00:56:32;6.10;99.90
37642;DHT22;23486;51.956;5.888;2024-01-30T00:59:01;6.10;99.90
37642;DHT22;23486;51.956;5.888;2024-01-30T01:01:26;6.10;99.90
37642;DHT22;23486;51.956;5.888;2024-01-30T01:03:52;6.10;99.90
37642;DHT22;23486;51.956;5.888;2024-01-30T01:06:17;6.00;99.90
37642;DHT22;23486;51.956;5.888;2024-01-30T01:08:43;6.00;99.90
37642;DHT22;23486;51.956;5.888;2024-01-30T01:11:09;6.00;99.90
37642;DHT22;23486;51.956;5.888;2024-01-30T01:13:35;6.00;99.90
37642;DHT22;23486;51.956;5.888;2024-01-30T01:16:00;6.00;99.90
37642;DHT22;23486;51.956;5.888;2024-01-30T01:18:26;5.90;99.90
37642;DHT22;23486;51.956;5.888;2024-01-30T01:20:52;5.90;99.90
37642;DHT22;23486;51.956;5.888;2024-01-30T01:23:18;5.90;99.90
37642;DHT22;23486;51.956;5.888;2024-01-30T01:25:44;5.90;99.90
37642;DHT22;23486;51.956;5.888;2024-01-30T01:28:09;5.90;99.90
37642;DHT22;23486;51.956;5.888;2024-01-30T01:30:35;5.90;99.90
37642;DHT22;23486;51.956;5.888;2024-01-30T01:33:00;5.90;99.90
37642;DHT22;23486;51.956;5.888;2024-01-30T01:35:27;5.90;99.90
37642;DHT22;23486;51.956;5.888;2024-01-30T01:37:54;5.90;99.90
37642;DHT22;23486;51.956;5.888;2024-01-30T01:40:25;5.80;99.90
37642;DHT22;23486;51.956;5.888;2024-01-30T01:42:52;5.80;99.90
37642;DHT22;23486;51.956;5.888;2024-01-30T01:45:18;5.80;99.90
37642;DHT22;23486;51.956;5.888;2024-01-30T01:47:47;5.80;99.90
37642;DHT22;23486;51.956;5.888;2024-01-30T01:50:15;5.80;99.90
37642;DHT22;23486;51.956;5.888;2024-01-30T01:52:43;5.80;99.90
37642;DHT22;23486;51.956;5.888;2024-01-30T01:55:10;5.80;99.90
37642;DHT22;23486;51.956;5.888;2024-01-30T01:57:36;5.80;99.90
37642;DHT22;23486;51.956;5.888;2024-01-30T02:00:02;5.90;99.90
37642;DHT22;23486;51.956;5.888;2024-01-30T02:02:30;5.90;99.90
37642;DHT22;23486;51.956;5.888;2024-01-30T02:04:58;5.80;99.90
37642;DHT22;23486;51.956;5.888;2024-01-30T02:07:24;5.90;99.90
37642;DHT22;23486;51.956;5.888;2024-01-30T02:09:50;5.90;99.90
37642;DHT22;23486;51.956;5.888;2024-01-30T02:12:15;6.00;99.90
37642;DHT22;23486;51.956;5.888;2024-01-30T02:14:45;6.00;99.90
37642;DHT22;23486;51.956;5.888;2024-01-30T02:17:12;6.10;99.90
37642;DHT22;23486;51.956;5.888;2024-01-30T02:19:37;6.10;99.90
37642;DHT22;23486;51.956;5.888;2024-01-30T02:22:03;6.10;99.90
37642;DHT22;23486;51.956;5.888;2024-01-30T02:24:29;6.10;99.90
37642;DHT22;23486;51.956;5.888;2024-01-30T02:26:55;6.10;99.90
37642;DHT22;23486;51.956;5.888;2024-01-30T02:29:23;6.10;99.90
37642;DHT22;23486;51.956;5.888;2024-01-30T02:31:49;6.00;99.90
37642;DHT22;23486;51.956;5.888;2024-01-30T02:34:14;6.00;99.90
37642;DHT22;23486;51.956;5.888;2024-01-30T02:36:43;5.90;99.90
37642;DHT22;23486;51.956;5.888;2024-01-30T02:39:09;5.90;99.90
37642;DHT22;23486;51.956;5.888;2024-01-30T02:41:35;5.80;99.90
37642;DHT22;23486;51.956;5.888;2024-01-30T02:44:01;5.80;99.90
37642;DHT22;23486;51.956;5.888;2024-01-30T02:46:27;5.70;99.90
37642;DHT22;23486;51.956;5.888;2024-01-30T02:48:52;5.70;99.90
37642;DHT22;23486;51.956;5.888;2024-01-30T02:51:18;5.70;99.90
37642;DHT22;23486;51.956;5.888;2024-01-30T02:53:44;5.60;99.90
37642;DHT22;23486;51.956;5.888;2024-01-30T02:56:09;5.60;99.90
37642;DHT22;23486;51.956;5.888;2024-01-30T02:58:36;5.60;99.90
37642;DHT22;23486;51.956;5.888;2024-01-30T03:01:02;5.50;99.90
37642;DHT22;23486;51.956;5.888;2024-01-30T03:03:28;5.50;99.90
37642;DHT22;23486;51.956;5.888;2024-01-30T03:05:53;5.60;99.90
37642;DHT22;23486;51.956;5.888;2024-01-30T03:08:19;5.50;99.90
37642;DHT22;23486;51.956;5.888;2024-01-30T03:10:45;5.50;99.90
37642;DHT22;23486;51.956;5.888;2024-01-30T03:13:11;5.40;99.90
37642;DHT22;23486;51.956;5.888;2024-01-30T03:15:36;5.40;99.90
37642;DHT22;23486;51.956;5.888;2024-01-30T03:18:02;5.40;99.90
37642;DHT22;23486;51.956;5.888;2024-01-30T03:20:29;5.40;99.90
37642;DHT22;23486;51.956;5.888;2024-01-30T03:22:55;5.30;99.90
37642;DHT22;23486;51.956;5.888;2024-01-30T03:25:21;5.30;99.90
37642;DHT22;23486;51.956;5.888;2024-01-30T03:27:46;5.30;99.90
37642;DHT22;23486;51.956;5.888;2024-01-30T03:30:12;5.30;99.90
37642;DHT22;23486;51.956;5.888;2024-01-30T03:32:37;5.20;99.90
37642;DHT22;23486;51.956;5.888;2024-01-30T03:35:03;5.20;99.90
37642;DHT22;23486;51.956;5.888;2024-01-30T03:37:29;5.20;99.90
37642;DHT22;23486;51.956;5.888;2024-01-30T03:39:55;5.20;99.90
37642;DHT22;23486;51.956;5.888;2024-01-30T03:42:23;5.20;99.90
37642;DHT22;23486;51.956;5.888;2024-01-30T03:44:49;5.20;99.90
37642;DHT22;23486;51.956;5.888;2024-01-30T03:47:17;5.20;99.90
37642;DHT22;23486;51.956;5.888;2024-01-30T03:49:43;5.20;99.90
37642;DHT22;23486;51.956;5.888;2024-01-30T03:52:08;5.20;99.90
37642;DHT22;23486;51.956;5.888;2024-01-30T03:54:34;5.20;99.90
37642;DHT22;23486;51.956;5.888;2024-01-30T03:57:00;5.20;99.90
37642;DHT22;23486;51.956;5.888;2024-01-30T03:59:25;5.20;99.90
37642;DHT22;23486;51.956;5.888;2024-01-30T04:01:54;5.10;99.90
37642;DHT22;23486;51.956;5.888;2024-01-30T04:04:20;5.10;99.90
37642;DHT22;23486;51.956;5.888;2024-01-30T04:06:46;5.10;99.90
37642;DHT22;23486;51.956;5.888;2024-01-30T04:09:12;5.10;99.90
37642;DHT22;23486;51.956;5.888;2024-01-30T04:11:39;5.20;99.90
37642;DHT22;23486;51.956;5.888;2024-01-30T04:14:05;5.10;99.90
37642;DHT22;23486;51.956;5.888;2024-01-30T04:16:30;5.20;99.90
37642;DHT22;23486;51.956;5.888;2024-01-30T04:18:58;5.10;99.90
37642;DHT22;23486;51.956;5.888;2024-01-30T04:21:23;5.20;99.90
37642;DHT22;23486;51.956;5.888;2024-01-30T04:23:52;5.20;99.90
37642;DHT22;23486;51.956;5.888;2024-01-30T04:26:18;5.20;99.90
37642;DHT22;23486;51.956;5.888;2024-01-30T04:28:47;5.10;99.90
37642;DHT22;23486;51.956;5.888;2024-01-30T04:31:12;5.20;99.90
37642;DHT22;23486;51.956;5.888;2024-01-30T04:33:38;5.20;99.90
37642;DHT22;23486;51.956;5.888;2024-01-30T04:36:08;5.10;99.90
37642;DHT22;23486;51.956;5.888;2024-01-30T04:38:35;5.10;99.90
37642;DHT22;23486;51.956;5.888;2024-01-30T04:41:01;5.20;99.90
37642;DHT22;23486;51.956;5.888;2024-01-30T04:43:26;5.10;99.90
37642;DHT22;23486;51.956;5.888;2024-01-30T04:45:52;5.20;99.90
37642;DHT22;23486;51.956;5.888;2024-01-30T04:48:18;5.20;99.90
37642;DHT22;23486;51.956;5.888;2024-01-30T04:50:43;5.20;99.90
37642;DHT22;23486;51.956;5.888;2024-01-30T04:53:09;5.20;99.90
37642;DHT22;23486;51.956;5.888;2024-01-30T04:55:35;5.30;99.90
37642;DHT22;23486;51.956;5.888;2024-01-30T04:58:01;5.40;99.90
37642;DHT22;23486;51.956;5.888;2024-01-30T05:00:27;5.50;99.90
37642;DHT22;23486;51.956;5.888;2024-01-30T05:02:54;5.60;99.90
37642;DHT22;23486;51.956;5.888;2024-01-30T05:05:20;5.70;99.90
37642;DHT22;23486;51.956;5.888;2024-01-30T05:07:47;5.70;99.90
37642;DHT22;23486;51.956;5.888;2024-01-30T05:10:12;5.80;99.90
37642;DHT22;23486;51.956;5.888;2024-01-30T05:12:39;5.80;99.90
37642;DHT22;23486;51.956;5.888;2024-01-30T05:15:04;5.80;99.90
37642;DHT22;23486;51.956;5.888;2024-01-30T05:17:30;5.90;99.90
37642;DHT22;23486;51.956;5.888;2024-01-30T05:19:59;5.90;99.90
37642;DHT22;23486;51.956;5.888;2024-01-30T05:22:24;5.90;99.90
37642;DHT22;23486;51.956;5.888;2024-01-30T05:24:50;5.90;99.90
37642;DHT22;23486;51.956;5.888;2024-01-30T05:27:15;6.00;99.90
37642;DHT22;23486;51.956;5.888;2024-01-30T05:29:41;6.00;99.90
37642;DHT22;23486;51.956;5.888;2024-01-30T05:32:06;6.10;99.90
37642;DHT22;23486;51.956;5.888;2024-01-30T05:34:32;6.10;99.90
37642;DHT22;23486;51.956;5.888;2024-01-30T05:36:58;6.10;99.90
37642;DHT22;23486;51.956;5.888;2024-01-30T05:39:23;6.10;99.90
37642;DHT22;23486;51.956;5.888;2024-01-30T05:41:49;6.30;99.90
37642;DHT22;23486;51.956;5.888;2024-01-30T05:44:14;6.30;99.90
37642;DHT22;23486;51.956;5.888;2024-01-30T05:46:40;6.30;99.90
37642;DHT22;23486;51.956;5.888;2024-01-30T05:49:05;6.40;99.90
37642;DHT22;23486;51.956;5.888;2024-01-30T05:51:31;6.40;99.90
37642;DHT22;23486;51.956;5.888;2024-01-30T05:53:57;6.50;99.90
37642;DHT22;23486;51.956;5.888;2024-01-30T05:56:22;6.60;99.90
37642;DHT22;23486;51.956;5.888;2024-01-30T05:58:48;6.60;99.90
37642;DHT22;23486;51.956;5.888;2024-01-30T06:01:15;6.60;99.90
37642;DHT22;23486;51.956;5.888;2024-01-30T06:03:41;6.70;99.90
37642;DHT22;23486;51.956;5.888;2024-01-30T06:06:08;6.70;99.90
37642;DHT22;23486;51.956;5.888;2024-01-30T06:08:34;6.80;99.90
37642;DHT22;23486;51.956;5.888;2024-01-30T06:11:00;6.80;99.90
37642;DHT22;23486;51.956;5.888;2024-01-30T06:13:28;6.80;99.90
37642;DHT22;23486;51.956;5.888;2024-01-30T06:15:57;6.80;99.90
37642;DHT22;23486;51.956;5.888;2024-01-30T06:18:22;6.90;99.90
37642;DHT22;23486;51.956;5.888;2024-01-30T06:20:48;6.90;99.90
37642;DHT22;23486;51.956;5.888;2024-01-30T06:23:13;6.90;99.90
37642;DHT22;23486;51.956;5.888;2024-01-30T06:25:40;7.00;99.90
37642;DHT22;23486;51.956;5.888;2024-01-30T06:28:05;7.00;99.90
37642;DHT22;23486;51.956;5.888;2024-01-30T06:30:31;7.00;99.90
37642;DHT22;23486;51.956;5.888;2024-01-30T06:32:57;7.00;99.90
37642;DHT22;23486;51.956;5.888;2024-01-30T06:35:22;7.00;99.90
37642;DHT22;23486;51.956;5.888;2024-01-30T06:37:48;7.00;99.90
37642;DHT22;23486;51.956;5.888;2024-01-30T06:40:13;7.10;99.90
37642;DHT22;23486;51.956;5.888;2024-01-30T06:42:39;7.10;99.90
37642;DHT22;23486;51.956;5.888;2024-01-30T06:45:05;7.20;99.90
37642;DHT22;23486;51.956;5.888;2024-01-30T06:47:31;7.20;99.90
37642;DHT22;23486;51.956;5.888;2024-01-30T06:49:57;7.20;99.90
37642;DHT22;23486;51.956;5.888;2024-01-30T06:52:23;7.20;99.90
37642;DHT22;23486;51.956;5.888;2024-01-30T06:54:48;7.20;99.90
37642;DHT22;23486;51.956;5.888;2024-01-30T06:57:14;7.30;99.90
37642;DHT22;23486;51.956;5.888;2024-01-30T06:59:39;7.30;99.90
37642;DHT22;23486;51.956;5.888;2024-01-30T07:02:10;7.30;99.90
37642;DHT22;23486;51.956;5.888;2024-01-30T07:04:38;7.30;99.90
37642;DHT22;23486;51.956;5.888;2024-01-30T07:07:05;7.30;99.90
37642;DHT22;23486;51.956;5.888;2024-01-30T07:09:31;7.30;99.90
37642;DHT22;23486;51.956;5.888;2024-01-30T07:11:57;7.30;99.90
37642;DHT22;23486;51.956;5.888;2024-01-30T07:14:24;7.30;99.90
37642;DHT22;23486;51.956;5.888;2024-01-30T07:16:55;7.30;99.90
37642;DHT22;23486;51.956;5.888;2024-01-30T07:19:24;7.30;99.90
37642;DHT22;23486;51.956;5.888;2024-01-30T07:21:52;7.30;99.90
37642;DHT22;23486;51.956;5.888;2024-01-30T07:24:19;7.40;99.90
37642;DHT22;23486;51.956;5.888;2024-01-30T07:26:44;7.50;99.90
37642;DHT22;23486;51.956;5.888;2024-01-30T07:29:10;7.50;99.90
37642;DHT22;23486;51.956;5.888;2024-01-30T07:31:35;7.60;99.90
37642;DHT22;23486;51.956;5.888;2024-01-30T07:34:01;7.70;99.90
37642;DHT22;23486;51.956;5.888;2024-01-30T07:36:27;7.70;99.90
37642;DHT22;23486;51.956;5.888;2024-01-30T07:38:53;7.70;99.90
37642;DHT22;23486;51.956;5.888;2024-01-30T07:41:23;7.70;99.90
37642;DHT22;23486;51.956;5.888;2024-01-30T07:43:50;7.70;99.90
37642;DHT22;23486;51.956;5.888;2024-01-30T07:46:16;7.70;99.90
37642;DHT22;23486;51.956;5.888;2024-01-30T07:48:42;7.70;99.90
37642;DHT22;23486;51.956;5.888;2024-01-30T07:51:07;7.70;99.90
37642;DHT22;23486;51.956;5.888;2024-01-30T07:53:33;7.80;99.90
37642;DHT22;23486;51.956;5.888;2024-01-30T07:55:58;7.80;99.90
37642;DHT22;23486;51.956;5.888;2024-01-30T07:58:24;7.80;99.90
37642;DHT22;23486;51.956;5.888;2024-01-30T08:00:52;7.90;99.90
37642;DHT22;23486;51.956;5.888;2024-01-30T08:03:21;7.80;99.90
37642;DHT22;23486;51.956;5.888;2024-01-30T08:05:47;7.90;99.90
37642;DHT22;23486;51.956;5.888;2024-01-30T08:08:12;7.90;99.90
37642;DHT22;23486;51.956;5.888;2024-01-30T08:10:38;8.00;99.90
37642;DHT22;23486;51.956;5.888;2024-01-30T08:13:03;8.00;99.90
37642;DHT22;23486;51.956;5.888;2024-01-30T08:15:29;8.10;99.90
37642;DHT22;23486;51.956;5.888;2024-01-30T08:17:55;8.10;99.90
37642;DHT22;23486;51.956;5.888;2024-01-30T08:20:24;8.20;99.90
37642;DHT22;23486;51.956;5.888;2024-01-30T08:22:49;8.30;99.90
37642;DHT22;23486;51.956;5.888;2024-01-30T08:25:15;8.30;99.90
37642;DHT22;23486;51.956;5.888;2024-01-30T08:27:40;8.40;99.90
37642;DHT22;23486;51.956;5.888;2024-01-30T08:30:07;8.40;99.90
37642;DHT22;23486;51.956;5.888;2024-01-30T08:32:32;8.50;99.90
37642;DHT22;23486;51.956;5.888;2024-01-30T08:34:58;8.50;99.90
37642;DHT22;23486;51.956;5.888;2024-01-30T08:37:24;8.60;99.90
37642;DHT22;23486;51.956;5.888;2024-01-30T08:39:49;8.60;99.90
37642;DHT22;23486;51.956;5.888;2024-01-30T08:42:15;8.60;99.90
37642;DHT22;23486;51.956;5.888;2024-01-30T08:44:43;8.60;99.90
37642;DHT22;23486;51.956;5.888;2024-01-30T08:47:09;8.70;99.90
37642;DHT22;23486;51.956;5.888;2024-01-30T08:49:35;8.70;99.90
37642;DHT22;23486;51.956;5.888;2024-01-30T08:52:00;8.70;99.90
37642;DHT22;23486;51.956;5.888;2024-01-30T08:54:26;8.80;99.90
37642;DHT22;23486;51.956;5.888;2024-01-30T08:56:51;8.80;99.90
37642;DHT22;23486;51.956;5.888;2024-01-30T08:59:18;8.80;99.90
37642;DHT22;23486;51.956;5.888;2024-01-30T09:01:44;8.80;99.90
37642;DHT22;23486;51.956;5.888;2024-01-30T09:04:10;8.80;99.90
37642;DHT22;23486;51.956;5.888;2024-01-30T09:06:35;8.90;99.90
37642;DHT22;23486;51.956;5.888;2024-01-30T09:09:01;8.90;99.90
37642;DHT22;23486;51.956;5.888;2024-01-30T09:11:26;8.90;99.90
37642;DHT22;23486;51.956;5.888;2024-01-30T09:13:52;9.00;99.90
37642;DHT22;23486;51.956;5.888;2024-01-30T09:16:17;9.00;99.90
37642;DHT22;23486;51.956;5.888;2024-01-30T09:18:43;9.00;99.90
37642;DHT22;23486;51.956;5.888;2024-01-30T09:21:09;9.10;99.90
37642;DHT22;23486;51.956;5.888;2024-01-30T09:23:35;9.10;99.90
37642;DHT22;23486;51.956;5.888;2024-01-30T09:26:01;9.10;99.90
37642;DHT22;23486;51.956;5.888;2024-01-30T09:28:26;9.10;99.90
37642;DHT22;23486;51.956;5.888;2024-01-30T09:30:52;9.10;99.90
37642;DHT22;23486;51.956;5.888;2024-01-30T09:33:17;9.20;99.90
37642;DHT22;23486;51.956;5.888;2024-01-30T09:35:43;9.20;99.90
37642;DHT22;23486;51.956;5.888;2024-01-30T09:38:09;9.30;99.90
37642;DHT22;23486;51.956;5.888;2024-01-30T09:40:34;9.30;99.90
37642;DHT22;23486;51.956;5.888;2024-01-30T09:43:00;9.30;99.90
37642;DHT22;23486;51.956;5.888;2024-01-30T09:45:26;9.30;99.90
37642;DHT22;23486;51.956;5.888;2024-01-30T09:47:52;9.40;99.90
37642;DHT22;23486;51.956;5.888;2024-01-30T09:50:18;9.50;99.90
37642;DHT22;23486;51.956;5.888;2024-01-30T09:52:44;9.50;99.90
37642;DHT22;23486;51.956;5.888;2024-01-30T09:55:10;9.50;99.90
37642;DHT22;23486;51.956;5.888;2024-01-30T09:57:36;9.50;99.90
37642;DHT22;23486;51.956;5.888;2024-01-30T10:00:03;9.60;99.90
37642;DHT22;23486;51.956;5.888;2024-01-30T10:02:31;9.60;99.90
37642;DHT22;23486;51.956;5.888;2024-01-30T10:04:56;9.60;99.90
37642;DHT22;23486;51.956;5.888;2024-01-30T10:07:22;9.60;99.90
37642;DHT22;23486;51.956;5.888;2024-01-30T10:09:48;9.70;99.90
37642;DHT22;23486;51.956;5.888;2024-01-30T10:12:15;9.70;99.90
37642;DHT22;23486;51.956;5.888;2024-01-30T10:14:42;9.80;99.90
37642;DHT22;23486;51.956;5.888;2024-01-30T10:17:09;9.90;99.90
37642;DHT22;23486;51.956;5.888;2024-01-30T10:19:41;10.00;99.90
37642;DHT22;23486;51.956;5.888;2024-01-30T10:22:06;10.10;99.90
37642;DHT22;23486;51.956;5.888;2024-01-30T10:24:38;10.10;99.90
37642;DHT22;23486;51.956;5.888;2024-01-30T10:27:05;10.10;99.90
37642;DHT22;23486;51.956;5.888;2024-01-30T10:29:32;10.10;99.90
37642;DHT22;23486;51.956;5.888;2024-01-30T10:34:24;10.20;99.90
37642;DHT22;23486;51.956;5.888;2024-01-30T10:36:50;10.10;99.90
37642;DHT22;23486;51.956;5.888;2024-01-30T10:39:20;10.20;99.90
37642;DHT22;23486;51.956;5.888;2024-01-30T10:41:56;10.20;99.90
37642;DHT22;23486;51.956;5.888;2024-01-30T10:44:30;10.20;99.90
37642;DHT22;23486;51.956;5.888;2024-01-30T10:47:03;10.30;99.90
37642;DHT22;23486;51.956;5.888;2024-01-30T10:49:32;10.30;99.90
37642;DHT22;23486;51.956;5.888;2024-01-30T10:51:58;10.30;99.90
37642;DHT22;23486;51.956;5.888;2024-01-30T10:54:25;10.40;99.90
37642;DHT22;23486;51.956;5.888;2024-01-30T10:56:52;10.40;99.90
37642;DHT22;23486;51.956;5.888;2024-01-30T10:59:19;10.40;99.90
37642;DHT22;23486;51.956;5.888;2024-01-30T11:01:45;10.50;99.90
37642;DHT22;23486;51.956;5.888;2024-01-30T11:04:14;10.40;99.90
37642;DHT22;23486;51.956;5.888;2024-01-30T11:06:43;10.50;99.90
37642;DHT22;23486;51.956;5.888;2024-01-30T11:09:11;10.50;99.90
37642;DHT22;23486;51.956;5.888;2024-01-30T11:11:57;10.60;99.90
37642;DHT22;23486;51.956;5.888;2024-01-30T11:14:29;10.60;99.90
37642;DHT22;23486;51.956;5.888;2024-01-30T11:16:59;10.70;99.90
37642;DHT22;23486;51.956;5.888;2024-01-30T11:19:26;10.70;99.90
37642;DHT22;23486;51.956;5.888;2024-01-30T11:21:55;10.80;99.90
37642;DHT22;23486;51.956;5.888;2024-01-30T11:24:23;10.90;99.90
37642;DHT22;23486;51.956;5.888;2024-01-30T11:26:58;11.00;99.90
37642;DHT22;23486;51.956;5.888;2024-01-30T11:29:27;11.00;99.90
37642;DHT22;23486;51.956;5.888;2024-01-30T11:31:59;11.00;99.90
37642;DHT22;23486;51.956;5.888;2024-01-30T11:34:25;11.00;99.90
37642;DHT22;23486;51.956;5.888;2024-01-30T11:36:59;11.00;99.90
37642;DHT22;23486;51.956;5.888;2024-01-30T11:39:26;11.10;99.90
37642;DHT22;23486;51.956;5.888;2024-01-30T11:41:52;11.10;99.90
37642;DHT22;23486;51.956;5.888;2024-01-30T11:44:22;11.10;99.90
37642;DHT22;23486;51.956;5.888;2024-01-30T11:46:49;11.10;99.90
37642;DHT22;23486;51.956;5.888;2024-01-30T11:49:18;11.10;99.90
37642;DHT22;23486;51.956;5.888;2024-01-30T11:51:47;11.20;99.90
37642;DHT22;23486;51.956;5.888;2024-01-30T11:54:15;11.30;99.90
37642;DHT22;23486;51.956;5.888;2024-01-30T11:56:42;11.40;99.90
37642;DHT22;23486;51.956;5.888;2024-01-30T11:59:07;11.50;99.90
37642;DHT22;23486;51.956;5.888;2024-01-30T12:01:33;11.50;99.90
37642;DHT22;23486;51.956;5.888;2024-01-30T12:03:59;11.60;99.90
37642;DHT22;23486;51.956;5.888;2024-01-30T12:06:25;11.60;99.90
37642;DHT22;23486;51.956;5.888;2024-01-30T12:09:01;11.60;99.90
37642;DHT22;23486;51.956;5.888;2024-01-30T12:11:29;11.60;99.90
37642;DHT22;23486;51.956;5.888;2024-01-30T12:13:56;11.60;99.90
37642;DHT22;23486;51.956;5.888;2024-01-30T12:16:22;11.60;99.90
37642;DHT22;23486;51.956;5.888;2024-01-30T12:18:48;11.60;99.90
37642;DHT22;23486;51.956;5.888;2024-01-30T12:21:16;11.50;99.90
37642;DHT22;23486;51.956;5.888;2024-01-30T12:23:42;11.50;99.90
37642;DHT22;23486;51.956;5.888;2024-01-30T12:26:08;11.60;99.90
37642;DHT22;23486;51.956;5.888;2024-01-30T12:28:34;11.50;99.90
37642;DHT22;23486;51.956;5.888;2024-01-30T12:31:03;11.50;99.90
37642;DHT22;23486;51.956;5.888;2024-01-30T12:33:32;11.50;99.90
37642;DHT22;23486;51.956;5.888;2024-01-30T12:36:00;11.50;99.90
37642;DHT22;23486;51.956;5.888;2024-01-30T12:38:27;11.50;99.90
37642;DHT22;23486;51.956;5.888;2024-01-30T12:40:56;11.60;99.90
37642;DHT22;23486;51.956;5.888;2024-01-30T12:43:22;11.60;99.90
37642;DHT22;23486;51.956;5.888;2024-01-30T12:45:49;11.60;99.90
37642;DHT22;23486;51.956;5.888;2024-01-30T12:48:15;11.60;99.90
37642;DHT22;23486;51.956;5.888;2024-01-30T12:50:41;11.60;99.90
37642;DHT22;23486;51.956;5.888;2024-01-30T12:53:06;11.50;99.90
37642;DHT22;23486;51.956;5.888;2024-01-30T12:55:32;11.40;99.90
37642;DHT22;23486;51.956;5.888;2024-01-30T12:57:58;11.40;99.90
37642;DHT22;23486;51.956;5.888;2024-01-30T13:00:23;11.30;99.90
37642;DHT22;23486;51.956;5.888;2024-01-30T13:02:49;11.30;99.90
37642;DHT22;23486;51.956;5.888;2024-01-30T13:05:15;11.30;99.90
37642;DHT22;23486;51.956;5.888;2024-01-30T13:07:40;11.30;99.90
37642;DHT22;23486;51.956;5.888;2024-01-30T13:10:06;11.30;99.90
37642;DHT22;23486;51.956;5.888;2024-01-30T13:12:32;11.30;99.90
37642;DHT22;23486;51.956;5.888;2024-01-30T13:14:58;11.40;99.90
37642;DHT22;23486;51.956;5.888;2024-01-30T13:17:26;11.30;99.90
37642;DHT22;23486;51.956;5.888;2024-01-30T13:19:52;11.20;99.90
37642;DHT22;23486;51.956;5.888;2024-01-30T13:22:19;11.30;99.90
37642;DHT22;23486;51.956;5.888;2024-01-30T13:24:47;11.20;99.90
37642;DHT22;23486;51.956;5.888;2024-01-30T13:27:12;11.20;99.90
37642;DHT22;23486;51.956;5.888;2024-01-30T13:29:38;11.10;99.90
37642;DHT22;23486;51.956;5.888;2024-01-30T13:32:04;11.20;99.90
37642;DHT22;23486;51.956;5.888;2024-01-30T13:34:29;11.10;99.90
37642;DHT22;23486;51.956;5.888;2024-01-30T13:36:58;11.10;99.90
37642;DHT22;23486;51.956;5.888;2024-01-30T13:39:26;11.10;99.90
37642;DHT22;23486;51.956;5.888;2024-01-30T13:41:52;11.10;99.90
37642;DHT22;23486;51.956;5.888;2024-01-30T13:44:17;11.10;99.90
37642;DHT22;23486;51.956;5.888;2024-01-30T13:46:44;11.10;99.90
37642;DHT22;23486;51.956;5.888;2024-01-30T13:49:10;11.00;99.90
37642;DHT22;23486;51.956;5.888;2024-01-30T13:51:35;10.90;99.90
37642;DHT22;23486;51.956;5.888;2024-01-30T13:54:01;10.90;99.90
37642;DHT22;23486;51.956;5.888;2024-01-30T13:56:27;10.70;99.90
37642;DHT22;23486;51.956;5.888;2024-01-30T13:58:52;10.60;99.90
37642;DHT22;23486;51.956;5.888;2024-01-30T14:01:18;10.50;99.90
37642;DHT22;23486;51.956;5.888;2024-01-30T14:03:44;10.40;99.90
37642;DHT22;23486;51.956;5.888;2024-01-30T14:06:11;10.30;99.90
37642;DHT22;23486;51.956;5.888;2024-01-30T14:08:37;10.20;99.90
37642;DHT22;23486;51.956;5.888;2024-01-30T14:11:02;10.20;99.90
37642;DHT22;23486;51.956;5.888;2024-01-30T14:13:30;10.10;99.90
37642;DHT22;23486;51.956;5.888;2024-01-30T14:15:57;10.00;99.90
37642;DHT22;23486;51.956;5.888;2024-01-30T14:18:22;9.90;99.90
37642;DHT22;23486;51.956;5.888;2024-01-30T14:20:48;9.90;99.90
37642;DHT22;23486;51.956;5.888;2024-01-30T14:23:14;9.90;99.90
37642;DHT22;23486;51.956;5.888;2024-01-30T14:25:39;9.90;99.90
37642;DHT22;23486;51.956;5.888;2024-01-30T14:28:05;9.90;99.90
37642;DHT22;23486;51.956;5.888;2024-01-30T14:30:31;9.90;99.90
37642;DHT22;23486;51.956;5.888;2024-01-30T14:32:56;9.90;99.90
37642;DHT22;23486;51.956;5.888;2024-01-30T14:35:22;10.00;99.90
37642;DHT22;23486;51.956;5.888;2024-01-30T14:37:48;9.90;99.90
37642;DHT22;23486;51.956;5.888;2024-01-30T14:40:14;9.90;99.90
37642;DHT22;23486;51.956;5.888;2024-01-30T14:42:39;9.90;99.90
37642;DHT22;23486;51.956;5.888;2024-01-30T14:45:05;9.90;99.90
37642;DHT22;23486;51.956;5.888;2024-01-30T14:47:34;9.90;99.90
37642;DHT22;23486;51.956;5.888;2024-01-30T14:50:04;9.90;99.90
37642;DHT22;23486;51.956;5.888;2024-01-30T14:52:31;9.90;99.90
37642;DHT22;23486;51.956;5.888;2024-01-30T14:54:57;9.90;99.90
37642;DHT22;23486;51.956;5.888;2024-01-30T14:57:26;9.90;99.90
37642;DHT22;23486;51.956;5.888;2024-01-30T14:59:51;9.90;99.90
37642;DHT22;23486;51.956;5.888;2024-01-30T15:02:17;9.80;99.90
37642;DHT22;23486;51.956;5.888;2024-01-30T15:04:43;9.80;99.90
37642;DHT22;23486;51.956;5.888;2024-01-30T15:07:11;9.80;99.90
37642;DHT22;23486;51.956;5.888;2024-01-30T15:09:37;9.80;99.90
37642;DHT22;23486;51.956;5.888;2024-01-30T15:12:03;9.80;99.90
37642;DHT22;23486;51.956;5.888;2024-01-30T15:14:32;9.80;99.90
37642;DHT22;23486;51.956;5.888;2024-01-30T15:16:57;9.70;99.90
37642;DHT22;23486;51.956;5.888;2024-01-30T15:19:26;9.70;99.90
37642;DHT22;23486;51.956;5.888;2024-01-30T15:21:52;9.70;99.90
37642;DHT22;23486;51.956;5.888;2024-01-30T15:24:17;9.70;99.90
37642;DHT22;23486;51.956;5.888;2024-01-30T15:26:43;9.60;99.90
37642;DHT22;23486;51.956;5.888;2024-01-30T15:29:09;9.60;99.90
37642;DHT22;23486;51.956;5.888;2024-01-30T15:31:37;9.60;99.90
37642;DHT22;23486;51.956;5.888;2024-01-30T15:34:03;9.60;99.90
37642;DHT22;23486;51.956;5.888;2024-01-30T15:36:29;9.50;99.90
37642;DHT22;23486;51.956;5.888;2024-01-30T15:38:55;9.50;99.90